sensor_id;sensor_type;location;lat;lon;timestamp;pressure;altitude;pressure_sealevel;temperature;humidity
64200;BME280;50516;52.272;5.136;2023-02-02T00:01:27;102077.31;;;8.03;95.73
64200;BME280;50516;52.272;5.136;2023-02-02T00:03:53;102082.56;;;8.05;95.05
64200;BME280;50516;52.272;5.136;2023-02-02T00:06:21;102080.88;;;8.04;94.89
64200;BME280;50516;52.272;5.136;2023-02-02T00:08:47;102091.78;;;8.11;94.75
64200;BME280;50516;52.272;5.136;2023-02-02T00:11:13;102089.06;;;8.04;94.60
64200;BME280;50516;52.272;5.136;2023-02-02T00:13:39;102086.34;;;8.04;94.68
64200;BME280;50516;52.272;5.136;2023-02-02T00:16:38;102086.75;;;8.08;94.43
64200;BME280;50516;52.272;5.136;2023-02-02T00:19:10;102089.81;;;7.93;94.38
64200;BME280;50516;52.272;5.136;2023-02-02T00:21:36;102082.09;;;7.90;94.64
64200;BME280;50516;52.272;5.136;2023-02-02T00:24:03;102082.09;;;7.83;93.30
64200;BME280;50516;52.272;5.136;2023-02-02T00:26:28;102089.38;;;7.96;92.63
64200;BME280;50516;52.272;5.136;2023-02-02T00:28:54;102085.88;;;7.89;92.92
64200;BME280;50516;52.272;5.136;2023-02-02T00:31:19;102081.44;;;7.88;92.13
64200;BME280;50516;52.272;5.136;2023-02-02T00:33:46;102080.03;;;7.78;91.98
64200;BME280;50516;52.272;5.136;2023-02-02T00:36:12;102091.03;;;7.72;91.10
64200;BME280;50516;52.272;5.136;2023-02-02T00:38:37;102104.72;;;7.72;91.78
64200;BME280;50516;52.272;5.136;2023-02-02T00:41:03;102091.69;;;7.67;92.94
64200;BME280;50516;52.272;5.136;2023-02-02T00:43:29;102084.13;;;7.69;93.35
64200;BME280;50516;52.272;5.136;2023-02-02T00:45:55;102092.16;;;7.64;93.16
64200;BME280;50516;52.272;5.136;2023-02-02T00:48:20;102091.81;;;7.54;93.35
64200;BME280;50516;52.272;5.136;2023-02-02T00:50:46;102092.25;;;7.50;94.08
64200;BME280;50516;52.272;5.136;2023-02-02T00:53:11;102098.84;;;7.43;94.43
64200;BME280;50516;52.272;5.136;2023-02-02T00:55:36;102097.38;;;7.40;95.06
64200;BME280;50516;52.272;5.136;2023-02-02T00:58:02;102091.25;;;7.45;94.42
64200;BME280;50516;52.272;5.136;2023-02-02T01:00:28;102099.44;;;7.45;94.80
64200;BME280;50516;52.272;5.136;2023-02-02T01:02:53;102096.94;;;7.43;94.64
64200;BME280;50516;52.272;5.136;2023-02-02T01:05:20;102097.38;;;7.40;93.84
64200;BME280;50516;52.272;5.136;2023-02-02T01:07:46;102106.22;;;7.36;93.28
64200;BME280;50516;52.272;5.136;2023-02-02T01:10:14;102103.72;;;7.34;93.03
64200;BME280;50516;52.272;5.136;2023-02-02T01:12:41;102112.53;;;7.36;92.97
64200;BME280;50516;52.272;5.136;2023-02-02T01:15:07;102105.97;;;7.44;92.82
64200;BME280;50516;52.272;5.136;2023-02-02T01:17:32;102107.94;;;7.62;91.98
64200;BME280;50516;52.272;5.136;2023-02-02T01:19:58;102113.66;;;7.54;92.09
64200;BME280;50516;52.272;5.136;2023-02-02T01:22:23;102109.06;;;7.54;92.51
64200;BME280;50516;52.272;5.136;2023-02-02T01:24:49;102103.63;;;7.47;93.17
64200;BME280;50516;52.272;5.136;2023-02-02T01:27:14;102094.97;;;7.50;93.38
64200;BME280;50516;52.272;5.136;2023-02-02T01:29:39;102102.09;;;7.58;93.28
64200;BME280;50516;52.272;5.136;2023-02-02T01:32:05;102104.00;;;7.58;93.53
64200;BME280;50516;52.272;5.136;2023-02-02T01:34:30;102106.44;;;7.66;93.32
64200;BME280;50516;52.272;5.136;2023-02-02T01:36:56;102106.84;;;7.70;93.61
64200;BME280;50516;52.272;5.136;2023-02-02T01:39:21;102100.09;;;7.72;93.59
64200;BME280;50516;52.272;5.136;2023-02-02T01:41:47;102104.22;;;7.81;93.80
64200;BME280;50516;52.272;5.136;2023-02-02T01:47:15;102112.41;;;7.81;94.29
64200;BME280;50516;52.272;5.136;2023-02-02T01:49:41;102109.06;;;7.79;94.42
64200;BME280;50516;52.272;5.136;2023-02-02T01:52:07;102102.72;;;7.85;94.76
64200;BME280;50516;52.272;5.136;2023-02-02T01:54:47;102113.03;;;7.83;95.41
64200;BME280;50516;52.272;5.136;2023-02-02T01:57:26;102114.25;;;7.88;95.72
64200;BME280;50516;52.272;5.136;2023-02-02T01:59:56;102106.63;;;7.71;96.50
64200;BME280;50516;52.272;5.136;2023-02-02T02:02:23;102107.16;;;7.80;96.77
64200;BME280;50516;52.272;5.136;2023-02-02T02:04:50;102100.66;;;7.81;96.98
64200;BME280;50516;52.272;5.136;2023-02-02T02:07:15;102095.84;;;7.76;97.30
64200;BME280;50516;52.272;5.136;2023-02-02T02:09:41;102108.19;;;7.85;97.32
64200;BME280;50516;52.272;5.136;2023-02-02T02:12:11;102098.41;;;7.71;97.84
64200;BME280;50516;52.272;5.136;2023-02-02T02:14:38;102098.47;;;7.64;98.48
64200;BME280;50516;52.272;5.136;2023-02-02T02:32:00;102083.13;;;7.63;100.00
64200;BME280;50516;52.272;5.136;2023-02-02T02:40:39;102069.38;;;7.70;99.03
64200;BME280;50516;52.272;5.136;2023-02-02T02:43:15;102071.25;;;7.51;99.81
64200;BME280;50516;52.272;5.136;2023-02-02T02:45:43;102061.09;;;7.58;99.52
64200;BME280;50516;52.272;5.136;2023-02-02T02:48:09;102076.28;;;7.54;99.24
64200;BME280;50516;52.272;5.136;2023-02-02T02:50:35;102074.81;;;7.52;99.33
64200;BME280;50516;52.272;5.136;2023-02-02T02:53:13;102079.66;;;7.49;99.03
64200;BME280;50516;52.272;5.136;2023-02-02T02:55:45;102074.19;;;7.49;98.62
64200;BME280;50516;52.272;5.136;2023-02-02T02:58:24;102077.91;;;7.55;98.85
64200;BME280;50516;52.272;5.136;2023-02-02T03:01:09;102088.03;;;7.55;98.42
64200;BME280;50516;52.272;5.136;2023-02-02T03:04:17;102099.84;;;7.48;98.14
64200;BME280;50516;52.272;5.136;2023-02-02T03:06:56;102089.50;;;7.50;98.01
64200;BME280;50516;52.272;5.136;2023-02-02T03:09:31;102099.41;;;7.52;98.22
64200;BME280;50516;52.272;5.136;2023-02-02T03:11:59;102102.88;;;7.65;97.76
64200;BME280;50516;52.272;5.136;2023-02-02T03:14:25;102111.75;;;7.61;97.94
64200;BME280;50516;52.272;5.136;2023-02-02T03:16:51;102102.91;;;7.59;97.56
64200;BME280;50516;52.272;5.136;2023-02-02T03:19:17;102099.13;;;7.60;97.73
64200;BME280;50516;52.272;5.136;2023-02-02T03:21:42;102100.19;;;7.59;97.42
64200;BME280;50516;52.272;5.136;2023-02-02T03:24:08;102103.56;;;7.61;97.14
64200;BME280;50516;52.272;5.136;2023-02-02T03:26:34;102104.81;;;7.58;97.63
64200;BME280;50516;52.272;5.136;2023-02-02T03:29:00;102109.22;;;7.59;97.60
64200;BME280;50516;52.272;5.136;2023-02-02T03:31:26;102101.66;;;7.61;97.48
64200;BME280;50516;52.272;5.136;2023-02-02T03:33:53;102108.09;;;7.67;97.18
64200;BME280;50516;52.272;5.136;2023-02-02T03:36:18;102096.78;;;7.63;97.20
64200;BME280;50516;52.272;5.136;2023-02-02T03:38:43;102100.59;;;7.62;97.34
64200;BME280;50516;52.272;5.136;2023-02-02T03:41:09;102110.00;;;7.66;97.22
64200;BME280;50516;52.272;5.136;2023-02-02T03:43:34;102100.53;;;7.69;96.92
64200;BME280;50516;52.272;5.136;2023-02-02T03:46:04;102093.38;;;7.68;96.62
64200;BME280;50516;52.272;5.136;2023-02-02T03:48:30;102096.13;;;7.68;96.46
64200;BME280;50516;52.272;5.136;2023-02-02T03:50:56;102106.84;;;7.70;96.38
64200;BME280;50516;52.272;5.136;2023-02-02T03:53:22;102095.06;;;7.69;96.52
64200;BME280;50516;52.272;5.136;2023-02-02T03:55:48;102090.81;;;7.73;95.93
64200;BME280;50516;52.272;5.136;2023-02-02T03:58:14;102083.91;;;7.71;96.41
64200;BME280;50516;52.272;5.136;2023-02-02T04:00:39;102096.91;;;7.75;95.79
64200;BME280;50516;52.272;5.136;2023-02-02T04:03:04;102108.25;;;7.79;95.67
64200;BME280;50516;52.272;5.136;2023-02-02T04:05:30;102098.28;;;7.84;95.76
64200;BME280;50516;52.272;5.136;2023-02-02T04:07:55;102097.53;;;7.77;95.60
64200;BME280;50516;52.272;5.136;2023-02-02T04:10:21;102088.59;;;7.89;95.27
64200;BME280;50516;52.272;5.136;2023-02-02T04:12:46;102083.28;;;7.94;95.17
64200;BME280;50516;52.272;5.136;2023-02-02T04:15:11;102081.66;;;7.86;94.96
64200;BME280;50516;52.272;5.136;2023-02-02T04:17:37;102078.09;;;7.85;95.01
64200;BME280;50516;52.272;5.136;2023-02-02T04:20:04;102075.97;;;7.88;94.76
64200;BME280;50516;52.272;5.136;2023-02-02T04:22:29;102083.72;;;7.91;94.83
64200;BME280;50516;52.272;5.136;2023-02-02T04:24:55;102085.19;;;7.93;94.28
64200;BME280;50516;52.272;5.136;2023-02-02T04:27:20;102081.00;;;7.91;94.26
64200;BME280;50516;52.272;5.136;2023-02-02T04:29:46;102088.22;;;7.85;94.47
64200;BME280;50516;52.272;5.136;2023-02-02T04:32:13;102092.53;;;7.93;94.28
64200;BME280;50516;52.272;5.136;2023-02-02T04:34:39;102110.91;;;7.85;94.53
64200;BME280;50516;52.272;5.136;2023-02-02T04:37:04;102090.72;;;7.86;94.49
64200;BME280;50516;52.272;5.136;2023-02-02T04:39:30;102102.09;;;7.83;94.59
64200;BME280;50516;52.272;5.136;2023-02-02T04:41:55;102106.72;;;7.83;94.71
64200;BME280;50516;52.272;5.136;2023-02-02T04:44:20;102102.94;;;7.84;95.15
64200;BME280;50516;52.272;5.136;2023-02-02T04:46:46;102108.63;;;7.82;94.93
64200;BME280;50516;52.272;5.136;2023-02-02T04:49:11;102102.09;;;7.83;95.36
64200;BME280;50516;52.272;5.136;2023-02-02T04:51:39;102101.88;;;7.85;95.39
64200;BME280;50516;52.272;5.136;2023-02-02T04:54:06;102083.56;;;7.85;95.35
64200;BME280;50516;52.272;5.136;2023-02-02T04:56:32;102111.97;;;7.84;95.32
64200;BME280;50516;52.272;5.136;2023-02-02T04:58:57;102115.94;;;7.89;94.69
64200;BME280;50516;52.272;5.136;2023-02-02T05:01:23;102119.94;;;7.86;95.37
64200;BME280;50516;52.272;5.136;2023-02-02T05:03:49;102122.69;;;7.86;95.73
64200;BME280;50516;52.272;5.136;2023-02-02T05:06:16;102123.97;;;7.83;95.50
64200;BME280;50516;52.272;5.136;2023-02-02T05:08:42;102118.06;;;7.86;95.39
64200;BME280;50516;52.272;5.136;2023-02-02T05:11:09;102121.25;;;7.83;95.36
64200;BME280;50516;52.272;5.136;2023-02-02T05:13:35;102100.38;;;7.89;95.42
64200;BME280;50516;52.272;5.136;2023-02-02T05:16:00;102115.78;;;7.83;95.55
64200;BME280;50516;52.272;5.136;2023-02-02T05:18:26;102117.88;;;7.81;95.76
64200;BME280;50516;52.272;5.136;2023-02-02T05:20:51;102123.13;;;7.83;95.67
64200;BME280;50516;52.272;5.136;2023-02-02T05:23:17;102119.28;;;7.91;95.39
64200;BME280;50516;52.272;5.136;2023-02-02T05:25:43;102122.03;;;7.91;95.40
64200;BME280;50516;52.272;5.136;2023-02-02T05:28:08;102115.50;;;7.92;95.56
64200;BME280;50516;52.272;5.136;2023-02-02T05:30:33;102117.16;;;7.93;95.47
64200;BME280;50516;52.272;5.136;2023-02-02T05:32:59;102114.66;;;7.91;95.61
64200;BME280;50516;52.272;5.136;2023-02-02T05:35:24;102119.72;;;7.88;95.67
64200;BME280;50516;52.272;5.136;2023-02-02T05:37:49;102127.50;;;7.91;95.73
64200;BME280;50516;52.272;5.136;2023-02-02T05:40:15;102119.28;;;7.91;96.30
64200;BME280;50516;52.272;5.136;2023-02-02T05:42:40;102122.19;;;7.96;95.86
64200;BME280;50516;52.272;5.136;2023-02-02T05:45:06;102129.94;;;7.99;96.52
64200;BME280;50516;52.272;5.136;2023-02-02T05:47:31;102131.47;;;7.95;96.60
64200;BME280;50516;52.272;5.136;2023-02-02T05:49:57;102124.53;;;7.92;96.68
64200;BME280;50516;52.272;5.136;2023-02-02T05:52:23;102129.34;;;7.97;97.09
64200;BME280;50516;52.272;5.136;2023-02-02T05:54:49;102132.34;;;7.89;97.11
64200;BME280;50516;52.272;5.136;2023-02-02T05:57:14;102138.25;;;7.85;97.31
64200;BME280;50516;52.272;5.136;2023-02-02T05:59:40;102138.59;;;7.96;97.16
64200;BME280;50516;52.272;5.136;2023-02-02T06:02:05;102135.84;;;7.96;96.88
64200;BME280;50516;52.272;5.136;2023-02-02T06:04:30;102134.88;;;7.90;97.32
64200;BME280;50516;52.272;5.136;2023-02-02T06:06:56;102139.50;;;7.90;97.11
64200;BME280;50516;52.272;5.136;2023-02-02T06:09:21;102135.53;;;7.85;97.57
64200;BME280;50516;52.272;5.136;2023-02-02T06:11:48;102134.66;;;7.92;97.76
64200;BME280;50516;52.272;5.136;2023-02-02T06:14:13;102148.47;;;7.97;97.61
64200;BME280;50516;52.272;5.136;2023-02-02T06:16:39;102140.94;;;7.92;97.64
64200;BME280;50516;52.272;5.136;2023-02-02T06:19:04;102142.03;;;7.84;98.32
64200;BME280;50516;52.272;5.136;2023-02-02T06:21:30;102141.50;;;7.76;98.35
64200;BME280;50516;52.272;5.136;2023-02-02T06:23:56;102144.19;;;7.82;99.07
64200;BME280;50516;52.272;5.136;2023-02-02T06:26:22;102152.81;;;7.79;99.30
64200;BME280;50516;52.272;5.136;2023-02-02T06:28:49;102150.31;;;7.78;99.59
64200;BME280;50516;52.272;5.136;2023-02-02T06:31:15;102159.34;;;7.78;99.64
64200;BME280;50516;52.272;5.136;2023-02-02T06:33:47;102160.25;;;7.72;99.66
64200;BME280;50516;52.272;5.136;2023-02-02T06:36:12;102164.41;;;7.75;100.00
64200;BME280;50516;52.272;5.136;2023-02-02T06:38:38;102179.16;;;7.74;99.87
64200;BME280;50516;52.272;5.136;2023-02-02T06:41:03;102175.78;;;7.72;100.00
64200;BME280;50516;52.272;5.136;2023-02-02T06:43:29;102167.19;;;7.68;100.00
64200;BME280;50516;52.272;5.136;2023-02-02T06:45:58;102178.31;;;7.73;100.00
64200;BME280;50516;52.272;5.136;2023-02-02T06:48:24;102185.06;;;7.71;100.00
64200;BME280;50516;52.272;5.136;2023-02-02T06:50:49;102190.97;;;7.67;100.00
64200;BME280;50516;52.272;5.136;2023-02-02T06:53:15;102194.09;;;7.71;100.00
64200;BME280;50516;52.272;5.136;2023-02-02T06:56:01;102181.75;;;7.62;100.00
64200;BME280;50516;52.272;5.136;2023-02-02T06:58:28;102182.13;;;7.72;100.00
64200;BME280;50516;52.272;5.136;2023-02-02T07:00:54;102173.91;;;7.72;100.00
64200;BME280;50516;52.272;5.136;2023-02-02T07:03:21;102175.41;;;7.68;100.00
64200;BME280;50516;52.272;5.136;2023-02-02T07:05:49;102175.78;;;7.72;100.00
64200;BME280;50516;52.272;5.136;2023-02-02T07:08:15;102174.09;;;7.77;100.00
64200;BME280;50516;52.272;5.136;2023-02-02T07:10:41;102162.72;;;7.80;100.00
64200;BME280;50516;52.272;5.136;2023-02-02T07:13:08;102182.63;;;7.88;100.00
64200;BME280;50516;52.272;5.136;2023-02-02T07:15:34;102182.69;;;7.81;100.00
64200;BME280;50516;52.272;5.136;2023-02-02T07:18:02;102187.75;;;7.77;100.00
64200;BME280;50516;52.272;5.136;2023-02-02T07:20:27;102185.81;;;7.84;100.00
64200;BME280;50516;52.272;5.136;2023-02-02T07:22:52;102191.75;;;7.75;100.00
64200;BME280;50516;52.272;5.136;2023-02-02T07:25:18;102202.91;;;7.73;100.00
64200;BME280;50516;52.272;5.136;2023-02-02T07:27:43;102199.53;;;7.78;100.00
64200;BME280;50516;52.272;5.136;2023-02-02T07:30:11;102205.00;;;7.78;100.00
64200;BME280;50516;52.272;5.136;2023-02-02T07:32:36;102218.69;;;7.71;100.00
64200;BME280;50516;52.272;5.136;2023-02-02T07:35:01;102204.00;;;7.72;100.00
64200;BME280;50516;52.272;5.136;2023-02-02T07:37:27;102217.00;;;7.77;99.77
64200;BME280;50516;52.272;5.136;2023-02-02T07:39:52;102203.56;;;7.75;99.52
64200;BME280;50516;52.272;5.136;2023-02-02T07:42:18;102212.31;;;7.84;99.15
64200;BME280;50516;52.272;5.136;2023-02-02T07:44:43;102216.75;;;7.85;99.15
64200;BME280;50516;52.272;5.136;2023-02-02T07:47:08;102218.63;;;7.84;99.25
64200;BME280;50516;52.272;5.136;2023-02-02T07:49:33;102222.00;;;7.86;98.41
64200;BME280;50516;52.272;5.136;2023-02-02T07:51:59;102232.28;;;7.84;98.34
64200;BME280;50516;52.272;5.136;2023-02-02T07:54:24;102248.09;;;7.82;98.33
64200;BME280;50516;52.272;5.136;2023-02-02T07:56:49;102233.38;;;7.83;97.91
64200;BME280;50516;52.272;5.136;2023-02-02T07:59:15;102230.41;;;7.85;98.27
64200;BME280;50516;52.272;5.136;2023-02-02T08:01:40;102234.16;;;7.91;98.29
64200;BME280;50516;52.272;5.136;2023-02-02T08:04:06;102234.16;;;7.91;97.46
64200;BME280;50516;52.272;5.136;2023-02-02T08:06:36;102236.66;;;7.92;96.85
64200;BME280;50516;52.272;5.136;2023-02-02T08:09:04;102236.22;;;7.95;96.92
64200;BME280;50516;52.272;5.136;2023-02-02T08:11:32;102227.03;;;7.90;96.80
64200;BME280;50516;52.272;5.136;2023-02-02T08:13:59;102224.09;;;7.84;96.53
64200;BME280;50516;52.272;5.136;2023-02-02T08:16:26;102233.31;;;7.90;96.95
64200;BME280;50516;52.272;5.136;2023-02-02T08:18:51;102239.63;;;7.91;96.60
64200;BME280;50516;52.272;5.136;2023-02-02T08:21:17;102244.22;;;7.97;96.15
64200;BME280;50516;52.272;5.136;2023-02-02T08:23:43;102260.34;;;8.05;96.14
64200;BME280;50516;52.272;5.136;2023-02-02T08:26:11;102251.09;;;8.06;95.45
64200;BME280;50516;52.272;5.136;2023-02-02T08:28:38;102253.63;;;8.08;95.45
64200;BME280;50516;52.272;5.136;2023-02-02T08:31:05;102269.81;;;8.09;95.60
64200;BME280;50516;52.272;5.136;2023-02-02T08:33:31;102271.84;;;8.14;95.08
64200;BME280;50516;52.272;5.136;2023-02-02T08:35:56;102274.59;;;8.14;94.54
64200;BME280;50516;52.272;5.136;2023-02-02T08:38:23;102267.47;;;8.13;94.23
64200;BME280;50516;52.272;5.136;2023-02-02T08:40:48;102274.56;;;8.20;94.86
64200;BME280;50516;52.272;5.136;2023-02-02T08:43:13;102282.47;;;8.35;93.73
64200;BME280;50516;52.272;5.136;2023-02-02T08:45:41;102275.91;;;8.36;93.48
64200;BME280;50516;52.272;5.136;2023-02-02T08:48:07;102282.63;;;8.40;93.71
64200;BME280;50516;52.272;5.136;2023-02-02T08:50:32;102288.28;;;8.46;92.95
64200;BME280;50516;52.272;5.136;2023-02-02T08:52:57;102291.28;;;8.37;93.30
64200;BME280;50516;52.272;5.136;2023-02-02T08:55:23;102291.94;;;8.33;93.13
64200;BME280;50516;52.272;5.136;2023-02-02T08:57:48;102291.06;;;8.39;92.83
64200;BME280;50516;52.272;5.136;2023-02-02T09:00:14;102294.97;;;8.56;92.41
64200;BME280;50516;52.272;5.136;2023-02-02T09:02:39;102299.72;;;8.68;92.16
64200;BME280;50516;52.272;5.136;2023-02-02T09:05:05;102297.06;;;8.80;91.72
64200;BME280;50516;52.272;5.136;2023-02-02T09:07:31;102298.09;;;8.85;91.57
64200;BME280;50516;52.272;5.136;2023-02-02T09:09:56;102299.44;;;8.94;91.22
64200;BME280;50516;52.272;5.136;2023-02-02T09:12:22;102300.63;;;9.05;90.67
64200;BME280;50516;52.272;5.136;2023-02-02T09:14:48;102307.94;;;9.11;91.25
64200;BME280;50516;52.272;5.136;2023-02-02T09:17:13;102317.66;;;9.07;90.86
64200;BME280;50516;52.272;5.136;2023-02-02T09:19:39;102322.97;;;9.02;91.30
64200;BME280;50516;52.272;5.136;2023-02-02T09:22:04;102327.69;;;8.95;91.63
64200;BME280;50516;52.272;5.136;2023-02-02T09:24:29;102322.72;;;8.85;91.33
64200;BME280;50516;52.272;5.136;2023-02-02T09:26:55;102329.78;;;9.00;92.07
64200;BME280;50516;52.272;5.136;2023-02-02T09:29:20;102329.34;;;8.96;91.58
64200;BME280;50516;52.272;5.136;2023-02-02T09:31:45;102337.69;;;9.08;91.82
64200;BME280;50516;52.272;5.136;2023-02-02T09:34:12;102327.31;;;8.91;92.05
64200;BME280;50516;52.272;5.136;2023-02-02T09:36:39;102330.53;;;9.07;91.88
64200;BME280;50516;52.272;5.136;2023-02-02T09:39:05;102325.13;;;9.00;91.41
64200;BME280;50516;52.272;5.136;2023-02-02T09:50:05;102338.69;;;9.13;91.30
64200;BME280;50516;52.272;5.136;2023-02-02T09:52:38;102334.59;;;9.23;91.05
64200;BME280;50516;52.272;5.136;2023-02-02T09:55:12;102336.19;;;9.30;90.76
64200;BME280;50516;52.272;5.136;2023-02-02T09:57:50;102334.06;;;9.14;91.19
64200;BME280;50516;52.272;5.136;2023-02-02T10:00:28;102346.81;;;9.20;90.93
64200;BME280;50516;52.272;5.136;2023-02-02T10:03:00;102346.53;;;9.10;91.27
64200;BME280;50516;52.272;5.136;2023-02-02T10:05:35;102356.47;;;9.04;91.41
64200;BME280;50516;52.272;5.136;2023-02-02T10:08:06;102352.50;;;9.00;90.73
64200;BME280;50516;52.272;5.136;2023-02-02T10:10:38;102344.84;;;9.09;90.85
64200;BME280;50516;52.272;5.136;2023-02-02T10:13:12;102346.09;;;9.31;90.60
64200;BME280;50516;52.272;5.136;2023-02-02T10:16:15;102354.38;;;9.25;90.78
64200;BME280;50516;52.272;5.136;2023-02-02T10:18:56;102356.97;;;9.20;89.77
64200;BME280;50516;52.272;5.136;2023-02-02T10:23:58;102366.00;;;9.20;90.36
64200;BME280;50516;52.272;5.136;2023-02-02T10:26:28;102371.50;;;9.20;90.43
64200;BME280;50516;52.272;5.136;2023-02-02T10:31:59;102378.38;;;9.29;90.40
64200;BME280;50516;52.272;5.136;2023-02-02T10:45:53;102382.81;;;9.49;90.16
64200;BME280;50516;52.272;5.136;2023-02-02T10:48:27;102380.22;;;9.54;89.84
64200;BME280;50516;52.272;5.136;2023-02-02T10:51:00;102387.75;;;9.59;89.80
64200;BME280;50516;52.272;5.136;2023-02-02T10:53:27;102380.16;;;9.79;88.88
64200;BME280;50516;52.272;5.136;2023-02-02T10:58:29;102387.84;;;9.52;89.90
64200;BME280;50516;52.272;5.136;2023-02-02T11:00:57;102378.41;;;9.66;89.84
64200;BME280;50516;52.272;5.136;2023-02-02T11:03:32;102371.19;;;9.72;89.36
64200;BME280;50516;52.272;5.136;2023-02-02T11:05:59;102369.25;;;9.73;88.77
64200;BME280;50516;52.272;5.136;2023-02-02T11:08:44;102370.00;;;9.80;89.35
64200;BME280;50516;52.272;5.136;2023-02-02T11:11:17;102374.44;;;9.81;88.34
64200;BME280;50516;52.272;5.136;2023-02-02T11:16:41;102362.19;;;9.83;89.06
64200;BME280;50516;52.272;5.136;2023-02-02T11:21:44;102379.63;;;9.71;88.72
64200;BME280;50516;52.272;5.136;2023-02-02T11:25:06;102382.53;;;9.76;88.72
64200;BME280;50516;52.272;5.136;2023-02-02T11:27:19;102366.44;;;9.79;88.49
64200;BME280;50516;52.272;5.136;2023-02-02T11:29:49;102376.88;;;9.89;88.00
64200;BME280;50516;52.272;5.136;2023-02-02T11:34:45;102371.56;;;9.76;88.83
64200;BME280;50516;52.272;5.136;2023-02-02T11:37:19;102378.19;;;9.68;88.67
64200;BME280;50516;52.272;5.136;2023-02-02T11:39:45;102383.88;;;9.66;88.17
64200;BME280;50516;52.272;5.136;2023-02-02T11:42:21;102375.44;;;9.68;88.05
64200;BME280;50516;52.272;5.136;2023-02-02T11:44:53;102374.97;;;9.71;87.64
64200;BME280;50516;52.272;5.136;2023-02-02T11:47:29;102370.69;;;9.75;87.86
64200;BME280;50516;52.272;5.136;2023-02-02T11:49:59;102365.59;;;9.79;87.10
64200;BME280;50516;52.272;5.136;2023-02-02T11:52:27;102369.66;;;9.58;87.69
64200;BME280;50516;52.272;5.136;2023-02-02T11:55:01;102371.84;;;9.67;87.66
64200;BME280;50516;52.272;5.136;2023-02-02T11:57:32;102361.94;;;9.66;87.84
64200;BME280;50516;52.272;5.136;2023-02-02T12:00:24;102361.25;;;9.71;87.85
64200;BME280;50516;52.272;5.136;2023-02-02T12:02:51;102364.84;;;9.72;87.92
64200;BME280;50516;52.272;5.136;2023-02-02T12:07:45;102380.28;;;9.47;88.30
64200;BME280;50516;52.272;5.136;2023-02-02T12:10:21;102378.34;;;9.55;88.66
64200;BME280;50516;52.272;5.136;2023-02-02T12:15:57;102366.28;;;9.56;88.60
64200;BME280;50516;52.272;5.136;2023-02-02T12:21:06;102372.75;;;9.43;88.78
64200;BME280;50516;52.272;5.136;2023-02-02T12:26:29;102359.38;;;9.53;88.96
64200;BME280;50516;52.272;5.136;2023-02-02T12:42:32;102363.91;;;9.41;89.11
64200;BME280;50516;52.272;5.136;2023-02-02T12:47:49;102356.88;;;9.26;89.86
64200;BME280;50516;52.272;5.136;2023-02-02T12:56:03;102352.94;;;9.41;89.56
64200;BME280;50516;52.272;5.136;2023-02-02T13:01:21;102348.81;;;9.31;89.91
64200;BME280;50516;52.272;5.136;2023-02-02T13:04:22;102344.81;;;9.34;89.47
64200;BME280;50516;52.272;5.136;2023-02-02T13:12:27;102350.75;;;9.06;92.67
64200;BME280;50516;52.272;5.136;2023-02-02T13:20:06;102357.41;;;9.17;94.29
64200;BME280;50516;52.272;5.136;2023-02-02T13:22:41;102362.50;;;9.13;94.84
64200;BME280;50516;52.272;5.136;2023-02-02T13:25:17;102358.59;;;9.27;95.20
64200;BME280;50516;52.272;5.136;2023-02-02T13:27:44;102358.72;;;9.32;94.82
64200;BME280;50516;52.272;5.136;2023-02-02T13:32:57;102358.13;;;9.30;95.37
64200;BME280;50516;52.272;5.136;2023-02-02T13:35:27;102354.91;;;9.15;96.63
64200;BME280;50516;52.272;5.136;2023-02-02T13:40:42;102356.44;;;9.29;96.06
64200;BME280;50516;52.272;5.136;2023-02-02T13:46:38;102360.72;;;9.25;96.79
64200;BME280;50516;52.272;5.136;2023-02-02T13:49:21;102362.91;;;9.17;97.69
64200;BME280;50516;52.272;5.136;2023-02-02T13:57:27;102354.81;;;9.03;99.29
64200;BME280;50516;52.272;5.136;2023-02-02T14:00:18;102362.81;;;9.23;99.24
64200;BME280;50516;52.272;5.136;2023-02-02T14:03:00;102364.97;;;9.21;98.36
64200;BME280;50516;52.272;5.136;2023-02-02T14:05:37;102358.25;;;9.17;99.04
64200;BME280;50516;52.272;5.136;2023-02-02T14:08:05;102370.59;;;9.26;98.84
64200;BME280;50516;52.272;5.136;2023-02-02T14:10:38;102356.75;;;9.40;98.21
64200;BME280;50516;52.272;5.136;2023-02-02T14:13:13;102373.34;;;9.26;98.74
64200;BME280;50516;52.272;5.136;2023-02-02T14:16:01;102367.38;;;9.11;99.18
64200;BME280;50516;52.272;5.136;2023-02-02T14:26:51;102369.50;;;9.09;99.40
64200;BME280;50516;52.272;5.136;2023-02-02T14:32:00;102365.59;;;8.98;100.00
64200;BME280;50516;52.272;5.136;2023-02-02T14:34:35;102364.38;;;8.94;100.00
64200;BME280;50516;52.272;5.136;2023-02-02T14:48:39;102387.81;;;8.83;100.00
64200;BME280;50516;52.272;5.136;2023-02-02T14:51:23;102381.63;;;8.69;100.00
64200;BME280;50516;52.272;5.136;2023-02-02T14:53:53;102385.03;;;8.65;100.00
64200;BME280;50516;52.272;5.136;2023-02-02T14:56:21;102396.22;;;8.63;100.00
64200;BME280;50516;52.272;5.136;2023-02-02T14:59:03;102379.06;;;8.74;100.00
64200;BME280;50516;52.272;5.136;2023-02-02T15:01:31;102388.91;;;8.82;100.00
64200;BME280;50516;52.272;5.136;2023-02-02T15:04:22;102385.94;;;8.84;100.00
64200;BME280;50516;52.272;5.136;2023-02-02T15:06:49;102390.72;;;8.95;100.00
64200;BME280;50516;52.272;5.136;2023-02-02T15:14:56;102391.03;;;8.80;100.00
64200;BME280;50516;52.272;5.136;2023-02-02T15:22:35;102403.00;;;8.86;100.00
64200;BME280;50516;52.272;5.136;2023-02-02T15:25:12;102402.38;;;8.84;100.00
64200;BME280;50516;52.272;5.136;2023-02-02T15:27:49;102401.78;;;8.75;100.00
64200;BME280;50516;52.272;5.136;2023-02-02T15:30:16;102410.59;;;8.84;100.00
64200;BME280;50516;52.272;5.136;2023-02-02T15:32:42;102412.09;;;8.80;100.00
64200;BME280;50516;52.272;5.136;2023-02-02T15:35:16;102406.06;;;8.71;100.00
64200;BME280;50516;52.272;5.136;2023-02-02T15:37:46;102407.28;;;8.75;100.00
64200;BME280;50516;52.272;5.136;2023-02-02T15:40:19;102410.16;;;8.87;100.00